Etusivu
METAR-TAF:

METAR-TAF

Lentoasemat :

Waco, Texas, Yhdysvallat

Leveyspiiri: 31-37-02N, Pituuspiiri: 097-13-40W, korkeus merenpinnasta: 157 m

Tämänhetkinen sää

Tämä raportti tehtiin 30 minuuttia sitten, kello 05.51 UTC
Tuuli 7 kn luoteesta
Lämpötila 14°C
Kosteus 58%
Ilmanpaine 1022 hPa
Näkyvyys: 16.1 km
selkeää

METAR: KACT 290551Z AUTO 32007KT 10SM CLR 14/06 A3019 RMK AO2 SLP219 T01440061 10228 20122 402610122 50004

Aika: 01:21 (06:21 UTC)

Sääennuste

Tämä raportti tehtiin 1 tunti ja 1 minuuttia sitten, kello 05.20 UTC
Ennuste voimassa 29. päivästä klo 06 UTC - 30. päivään klo 06 UTC
Tuuli 4 kn luoteesta
Näkyvyys: 10 km
selkeää
From 29. päivästä klo 1800 UTC
Tuuli 14 kn pohjoisen/luoteesta
Näkyvyys: 10 km
selkeää
From 30. päivästä klo 0200 UTC
Tuuli 5 kn lounaasta
Näkyvyys: 10 km
selkeää

TAF: KACT 290520Z 2906/3006 32004KT P6SM SKC FM291800 33014KT P6SM SKC FM300200 23005KT P6SM SKC

Säähavainnot ja -ennusteet yli 4000 lentoasemalta (METAR- ja TAF-raportit).

Käytössä olevat sääasemat on merkitty karttaan keltaisilla ja punaisilla pisteillä.

Aseta hiiri pisteen päälle nähdäksesi sääaseman nimen.

Klikkaa sitten nähdäksesi säähavainnot ja -ennusteet.

Kartan vaihtaminen: klikkaa mustalla rastilla varustettuja vihreitä pisteitä, niin voit zoomata sisään; viivalla varustettua vihreää pistettä, niin voit zoomata ulos tai vihreitä nuolia, niin pääset viereisille kartoille.


METAR-TAF: